createdAt,value
2019-05-17T00:00:10.326Z,38.55
2019-05-17T00:02:42.748Z,38.55
2019-05-17T00:05:17.495Z,38.54
2019-05-17T00:07:49.027Z,38.48
2019-05-17T00:10:21.251Z,38.39
2019-05-17T00:12:53.501Z,38.37
2019-05-17T00:15:27.336Z,38.38
2019-05-17T00:17:59.780Z,38.36
2019-05-17T00:20:32.795Z,38.34
2019-05-17T00:23:07.071Z,38.29
2019-05-17T00:25:39.055Z,38.25
2019-05-17T00:28:11.270Z,38.19
2019-05-17T00:30:43.649Z,38.18
2019-05-17T00:33:16.942Z,38.18
2019-05-17T00:35:49.375Z,38.16
2019-05-17T00:38:21.779Z,38.16
2019-05-17T00:40:56.343Z,38.11
2019-05-17T00:43:28.216Z,38.08
2019-05-17T00:46:00.425Z,38.06
2019-05-17T00:48:32.859Z,38.01
2019-05-17T00:51:09.261Z,38.00
2019-05-17T00:53:39.024Z,38.00
2019-05-17T00:56:11.275Z,37.98
2019-05-17T00:58:43.602Z,37.96
2019-05-17T01:01:16.548Z,37.94
2019-05-17T01:03:49.000Z,37.90
2019-05-17T01:06:21.547Z,37.88
2019-05-17T01:09:00.922Z,37.85
2019-05-17T01:11:28.511Z,37.81
2019-05-17T01:14:00.675Z,37.75
2019-05-17T01:16:33.254Z,37.65
2019-05-17T01:19:06.894Z,37.62
2019-05-17T01:21:39.862Z,37.55
2019-05-17T01:24:17.313Z,37.54
2019-05-17T01:26:49.932Z,37.50
2019-05-17T01:29:22.467Z,37.43
2019-05-17T01:31:56.957Z,37.40
2019-05-17T01:34:28.613Z,37.33
2019-05-17T01:37:00.875Z,37.29
2019-05-17T01:39:33.622Z,37.25
2019-05-17T01:42:06.769Z,37.18
2019-05-17T01:44:39.133Z,37.10
2019-05-17T01:47:11.461Z,37.03
2019-05-17T01:49:43.663Z,36.98
2019-05-17T01:52:16.753Z,36.93
2019-05-17T01:54:49.234Z,36.88
2019-05-17T01:57:21.377Z,36.79
2019-05-17T01:59:53.527Z,36.81
2019-05-17T02:02:30.572Z,36.78
2019-05-17T02:05:06.482Z,36.76
2019-05-17T02:07:39.046Z,36.73
2019-05-17T02:10:12.879Z,36.70
2019-05-17T02:12:48.678Z,36.67
2019-05-17T02:15:21.172Z,36.69
2019-05-17T02:17:53.431Z,36.73
2019-05-17T02:20:27.540Z,36.77
2019-05-17T02:22:59.990Z,36.75
2019-05-17T02:25:32.321Z,36.74
2019-05-17T02:28:04.573Z,36.73
2019-05-17T02:30:36.999Z,36.72
2019-05-17T02:33:12.424Z,36.74
2019-05-17T02:35:43.247Z,36.80
2019-05-17T02:38:15.608Z,36.77
2019-05-17T02:40:47.939Z,36.78
2019-05-17T02:43:23.356Z,36.82
2019-05-17T02:45:54.182Z,36.82
2019-05-17T02:48:28.116Z,36.86
2019-05-17T02:51:03.138Z,36.89
2019-05-17T02:53:34.254Z,36.89
2019-05-17T02:56:06.629Z,36.88
2019-05-17T02:58:39.402Z,36.91
2019-05-17T03:01:12.776Z,36.97
2019-05-17T03:03:45.117Z,36.98
2019-05-17T03:06:17.639Z,36.99
2019-05-17T03:08:52.473Z,37.02
2019-05-17T03:11:23.896Z,37.06
2019-05-17T03:13:56.607Z,37.09
2019-05-17T03:16:29.352Z,37.11
2019-05-17T03:19:04.179Z,37.16
2019-05-17T03:21:35.494Z,37.19
2019-05-17T03:24:07.899Z,37.21
2019-05-17T03:26:42.701Z,37.22
2019-05-17T03:29:14.081Z,37.21
2019-05-17T03:31:53.483Z,37.21
2019-05-17T03:34:25.849Z,37.25
2019-05-17T03:36:56.278Z,37.26
2019-05-17T03:39:28.726Z,37.29
2019-05-17T03:42:02.630Z,37.25
2019-05-17T03:44:35.111Z,37.22
2019-05-17T03:47:07.644Z,37.25
2019-05-17T03:49:39.984Z,37.22
2019-05-17T03:52:13.709Z,37.14
2019-05-17T03:54:46.028Z,37.11
2019-05-17T03:57:18.365Z,37.05
2019-05-17T03:59:52.471Z,37.00
2019-05-17T04:02:25.576Z,36.89
2019-05-17T04:04:58.357Z,36.83
2019-05-17T04:07:32.929Z,36.78
2019-05-17T04:10:04.860Z,36.72
2019-05-17T04:12:37.174Z,36.72
2019-05-17T04:15:13.018Z,36.61
2019-05-17T04:17:44.491Z,36.89
2019-05-17T04:20:17.951Z,37.04
2019-05-17T04:22:52.725Z,37.14
2019-05-17T04:25:24.526Z,37.13
2019-05-17T04:27:56.696Z,37.11
2019-05-17T04:30:32.291Z,37.29
2019-05-17T04:33:04.064Z,37.44
2019-05-17T04:35:36.475Z,37.56
2019-05-17T04:38:08.776Z,37.77
2019-05-17T04:40:43.177Z,37.99
2019-05-17T04:43:15.423Z,38.10
2019-05-17T04:45:48.098Z,38.15
2019-05-17T04:48:23.307Z,38.38
2019-05-17T04:50:54.696Z,38.62
2019-05-17T04:53:27.050Z,38.58
2019-05-17T04:56:03.131Z,38.61
2019-05-17T04:58:34.462Z,38.60
2019-05-17T05:01:06.824Z,38.60
2019-05-17T05:03:39.140Z,38.40
2019-05-17T05:06:13.361Z,38.25
2019-05-17T05:08:45.927Z,38.05
2019-05-17T05:11:18.280Z,37.83
2019-05-17T05:13:53.123Z,37.64
2019-05-17T05:16:25.055Z,37.40
2019-05-17T05:18:57.853Z,37.19
2019-05-17T05:21:32.367Z,36.99
2019-05-17T05:24:04.105Z,36.82
2019-05-17T05:26:36.465Z,36.65
2019-05-17T05:29:08.799Z,36.52
2019-05-17T05:31:42.778Z,36.45
2019-05-17T05:34:15.140Z,36.39
2019-05-17T05:36:47.395Z,36.28
2019-05-17T05:39:19.627Z,36.22
2019-05-17T05:41:51.932Z,36.22
2019-05-17T05:44:26.196Z,36.21
2019-05-17T05:46:58.428Z,36.08
2019-05-17T05:49:32.029Z,35.94
2019-05-17T05:52:04.651Z,35.78
2019-05-17T05:54:37.008Z,35.65
2019-05-17T05:57:09.230Z,35.54
2019-05-17T05:59:42.651Z,35.36
2019-05-17T06:02:15.300Z,35.17
2019-05-17T06:04:51.681Z,35.05
2019-05-17T06:07:23.142Z,35.05
2019-05-17T06:09:55.538Z,35.03
2019-05-17T06:12:28.243Z,34.99
2019-05-17T06:15:02.705Z,34.88
2019-05-17T06:17:34.473Z,34.85
2019-05-17T06:20:07.286Z,34.83
2019-05-17T06:22:42.457Z,34.85
2019-05-17T06:25:15.578Z,34.86
2019-05-17T06:27:48.271Z,34.82
2019-05-17T06:30:21.993Z,34.69
2019-05-17T06:32:54.495Z,34.59
2019-05-17T06:35:26.749Z,34.43
2019-05-17T06:37:59.190Z,34.36
2019-05-17T06:40:32.300Z,34.29
2019-05-17T06:43:04.976Z,34.12
2019-05-17T06:45:38.039Z,33.92
2019-05-17T06:48:11.743Z,33.80
2019-05-17T06:50:44.558Z,33.62
2019-05-17T06:53:16.843Z,33.48
2019-05-17T06:55:49.408Z,33.41
2019-05-17T06:58:22.343Z,33.32
2019-05-17T07:00:54.958Z,33.18
2019-05-17T07:03:29.354Z,33.10
2019-05-17T07:06:02.780Z,32.93
2019-05-17T07:08:35.797Z,32.63
2019-05-17T07:11:09.753Z,32.72
2019-05-17T07:13:42.456Z,32.75
2019-05-17T07:16:14.728Z,32.73
2019-05-17T07:18:49.269Z,32.65
2019-05-17T07:21:21.039Z,32.62
2019-05-17T07:23:53.271Z,32.50
2019-05-17T07:26:25.583Z,32.39
2019-05-17T07:28:59.253Z,32.34
2019-05-17T07:31:31.509Z,32.29
2019-05-17T07:34:03.789Z,32.21
2019-05-17T07:36:35.986Z,32.08
2019-05-17T07:39:10.779Z,32.03
2019-05-17T07:41:42.954Z,31.89
2019-05-17T07:44:15.909Z,31.81
2019-05-17T07:46:51.776Z,31.67
2019-05-17T07:49:23.294Z,31.61
2019-05-17T07:51:55.567Z,31.40
2019-05-17T07:54:30.191Z,31.31
2019-05-17T07:57:03.917Z,30.93
2019-05-17T07:59:36.640Z,30.65
2019-05-17T08:02:10.656Z,30.43
2019-05-17T08:04:43.023Z,30.25
2019-05-17T08:07:15.365Z,29.87
2019-05-17T08:09:47.626Z,29.53
2019-05-17T08:12:20.020Z,29.44
2019-05-17T08:14:52.390Z,29.20
2019-05-17T08:17:26.925Z,29.30
2019-05-17T08:20:00.529Z,29.24
2019-05-17T08:22:33.361Z,28.85
2019-05-17T08:25:06.031Z,28.33
2019-05-17T08:27:40.519Z,28.51
2019-05-17T08:30:14.250Z,28.27
2019-05-17T08:32:50.272Z,28.58
2019-05-17T08:35:24.596Z,28.15
2019-05-17T08:37:57.114Z,27.88
2019-05-17T08:40:30.520Z,27.69
2019-05-17T08:43:03.059Z,27.43
2019-05-17T08:45:35.259Z,27.15
2019-05-17T08:48:09.495Z,27.78
2019-05-17T08:50:41.479Z,27.78
2019-05-17T08:53:13.726Z,27.83
2019-05-17T08:55:46.028Z,27.87
2019-05-17T08:58:21.542Z,27.94
2019-05-17T09:00:52.893Z,27.91
2019-05-17T09:03:25.192Z,27.94
2019-05-17T09:06:01.518Z,28.04
2019-05-17T09:08:31.643Z,28.21
2019-05-17T09:11:03.919Z,28.26
2019-05-17T09:13:36.245Z,28.27
2019-05-17T09:16:10.618Z,28.41
2019-05-17T09:18:42.667Z,28.49
2019-05-17T09:21:14.852Z,28.55
2019-05-17T09:23:47.172Z,28.55
2019-05-17T09:26:19.988Z,28.64
2019-05-17T09:28:52.384Z,28.77
2019-05-17T09:31:24.786Z,28.90
2019-05-17T09:33:56.987Z,29.03
2019-05-17T09:36:30.251Z,29.14
2019-05-17T09:39:02.970Z,29.21
2019-05-17T09:41:35.543Z,29.32
2019-05-17T09:44:15.159Z,29.42
2019-05-17T09:46:41.818Z,29.56
2019-05-17T09:49:14.089Z,29.68
2019-05-17T09:51:46.326Z,29.80
2019-05-17T09:54:19.471Z,29.91
2019-05-17T09:56:51.854Z,30.08
2019-05-17T09:59:24.102Z,30.23
2019-05-17T10:01:56.841Z,30.33
2019-05-17T10:04:30.447Z,30.36
2019-05-17T10:07:02.957Z,30.52
2019-05-17T10:09:35.354Z,30.60
2019-05-17T10:12:09.507Z,30.64
2019-05-17T10:14:41.869Z,30.71
2019-05-17T10:17:14.169Z,30.79
2019-05-17T10:19:46.376Z,30.84
2019-05-17T10:22:20.053Z,30.90
2019-05-17T10:24:54.288Z,31.12
2019-05-17T10:27:27.107Z,31.17
2019-05-17T10:29:59.641Z,31.30
2019-05-17T10:32:32.105Z,31.34
2019-05-17T10:35:04.395Z,31.47
2019-05-17T10:37:36.896Z,31.53
2019-05-17T10:40:11.024Z,31.67
2019-05-17T10:42:43.746Z,31.84
2019-05-17T10:45:16.505Z,32.03
2019-05-17T10:47:50.277Z,32.34
2019-05-17T10:50:22.817Z,32.57
2019-05-17T10:52:55.084Z,32.74
2019-05-17T10:55:27.372Z,32.89
2019-05-17T10:58:00.483Z,33.06
2019-05-17T11:00:34.020Z,33.09
2019-05-17T11:03:06.251Z,33.41
2019-05-17T11:05:40.202Z,33.46
2019-05-17T11:08:13.391Z,33.45
2019-05-17T11:10:45.648Z,33.59
2019-05-17T11:13:17.917Z,33.85
2019-05-17T11:15:50.158Z,34.35
2019-05-17T11:18:22.555Z,34.78
2019-05-17T11:20:54.753Z,34.87
2019-05-17T11:23:26.929Z,35.02
2019-05-17T11:25:59.294Z,35.09
2019-05-17T11:28:31.488Z,35.40
2019-05-17T11:31:03.781Z,35.41
2019-05-17T11:33:36.043Z,35.75
2019-05-17T11:36:08.346Z,35.73
2019-05-17T11:38:40.611Z,35.86
2019-05-17T11:41:20.988Z,35.92
2019-05-17T11:43:47.000Z,36.03
2019-05-17T11:46:19.321Z,36.03
2019-05-17T11:48:51.710Z,36.05
2019-05-17T11:51:25.698Z,36.06
2019-05-17T11:53:58.132Z,36.41
2019-05-17T11:56:30.555Z,36.47
2019-05-17T11:59:02.785Z,36.36
2019-05-17T12:01:34.998Z,36.47
2019-05-17T12:04:07.627Z,36.69
2019-05-17T12:06:40.244Z,36.71
2019-05-17T12:09:12.644Z,37.25
2019-05-17T12:11:45.279Z,37.14
2019-05-17T12:14:17.833Z,37.43
2019-05-17T12:16:50.072Z,37.64
2019-05-17T12:19:22.252Z,37.81
2019-05-17T12:21:54.635Z,37.93
2019-05-17T12:24:26.964Z,37.97
2019-05-17T12:26:59.181Z,38.10
2019-05-17T12:29:31.500Z,38.25
2019-05-17T12:32:03.879Z,38.14
2019-05-17T12:34:36.256Z,38.38
2019-05-17T12:37:08.535Z,38.39
2019-05-17T12:39:40.733Z,38.51
2019-05-17T12:42:13.264Z,38.51
2019-05-17T12:44:45.497Z,38.72
2019-05-17T12:47:17.970Z,38.86
2019-05-17T12:49:50.454Z,39.03
2019-05-17T12:52:22.789Z,39.07
2019-05-17T12:54:54.994Z,39.32
2019-05-17T12:57:27.384Z,39.63
2019-05-17T12:59:59.679Z,39.57
2019-05-17T13:02:32.008Z,39.96
2019-05-17T13:05:04.212Z,39.79
2019-05-17T13:07:36.510Z,40.24
2019-05-17T13:10:08.724Z,39.93
2019-05-17T13:12:41.010Z,40.08
2019-05-17T13:15:13.641Z,40.29
2019-05-17T13:17:45.882Z,40.59
2019-05-17T13:20:19.815Z,40.60
2019-05-17T13:22:51.909Z,40.76
2019-05-17T13:25:24.137Z,40.83
2019-05-17T13:27:56.412Z,40.87
2019-05-17T13:30:28.654Z,40.78
2019-05-17T13:33:01.827Z,40.75
2019-05-17T13:35:34.100Z,40.76
2019-05-17T13:38:06.524Z,40.98
2019-05-17T13:40:40.099Z,41.00
2019-05-17T13:43:12.841Z,41.21
2019-05-17T13:45:46.865Z,41.10
2019-05-17T13:48:19.197Z,41.07
2019-05-17T13:50:52.221Z,41.04
2019-05-17T13:53:25.033Z,41.21
2019-05-17T13:55:57.296Z,41.49
2019-05-17T13:58:29.728Z,41.41
2019-05-17T14:01:02.050Z,41.71
2019-05-17T14:03:34.269Z,41.58
2019-05-17T14:06:07.658Z,41.91
2019-05-17T14:08:39.957Z,41.91
2019-05-17T14:11:12.190Z,42.11
2019-05-17T14:13:44.640Z,42.40
2019-05-17T14:16:16.877Z,42.41
2019-05-17T14:18:49.596Z,42.17
2019-05-17T14:21:21.902Z,42.07
2019-05-17T14:23:54.159Z,42.11
2019-05-17T14:26:26.511Z,42.18
2019-05-17T14:28:58.816Z,42.52
2019-05-17T14:34:08.821Z,42.51
2019-05-17T14:36:41.441Z,42.57
2019-05-17T14:39:13.732Z,42.59
2019-05-17T14:41:46.250Z,42.59
2019-05-17T14:44:19.375Z,42.77
2019-05-17T14:46:51.579Z,42.64
2019-05-17T14:49:23.988Z,42.58
2019-05-17T14:51:56.216Z,42.62
2019-05-17T14:54:28.730Z,42.54
2019-05-17T14:57:01.019Z,42.53
2019-05-17T14:59:33.221Z,42.74
2019-05-17T15:02:05.541Z,42.60
2019-05-17T15:04:37.741Z,42.59
2019-05-17T15:07:11.396Z,42.66
2019-05-17T15:09:43.846Z,42.64
2019-05-17T15:12:27.979Z,42.60
2019-05-17T15:14:50.103Z,42.57
2019-05-17T15:17:22.582Z,42.60
2019-05-17T15:19:55.089Z,42.63
2019-05-17T15:22:27.476Z,42.60
2019-05-17T15:25:00.128Z,42.68
2019-05-17T15:27:32.638Z,42.68
2019-05-17T15:30:05.112Z,42.68
2019-05-17T15:32:37.439Z,42.69
2019-05-17T15:35:10.078Z,42.71
2019-05-17T15:37:42.412Z,42.71
2019-05-17T15:40:15.291Z,42.68
2019-05-17T15:42:47.793Z,42.73
2019-05-17T15:45:20.252Z,42.81
2019-05-17T15:47:52.716Z,42.77
2019-05-17T15:50:24.982Z,42.83
2019-05-17T15:52:57.329Z,42.88
2019-05-17T15:55:29.853Z,43.10
2019-05-17T15:58:02.117Z,43.06
2019-05-17T16:00:34.418Z,43.06
2019-05-17T16:03:06.991Z,43.03
2019-05-17T16:05:39.855Z,43.03
2019-05-17T16:08:12.581Z,43.02
2019-05-17T16:10:45.018Z,43.03
2019-05-17T16:13:17.668Z,43.02
2019-05-17T16:15:50.299Z,43.07
2019-05-17T16:18:22.674Z,43.17
2019-05-17T16:20:55.117Z,43.17
2019-05-17T16:23:27.371Z,43.34
2019-05-17T16:25:59.881Z,43.29
2019-05-17T16:28:32.146Z,43.29
2019-05-17T16:31:04.368Z,43.29
2019-05-17T16:33:36.675Z,43.28
2019-05-17T16:36:08.897Z,43.29
2019-05-17T16:38:42.203Z,43.42
2019-05-17T16:41:14.452Z,43.44
2019-05-17T16:43:47.536Z,43.57
2019-05-17T16:46:19.823Z,43.68
2019-05-17T16:48:52.290Z,43.76
2019-05-17T16:51:24.570Z,43.87
2019-05-17T16:53:56.848Z,44.04
2019-05-17T16:56:29.628Z,44.05
2019-05-17T16:59:01.988Z,44.07
2019-05-17T17:01:34.200Z,44.11
2019-05-17T17:04:06.954Z,44.08
2019-05-17T17:06:39.265Z,44.12
2019-05-17T17:09:11.823Z,44.20
2019-05-17T17:11:45.726Z,44.29
2019-05-17T17:14:18.238Z,44.25
2019-05-17T17:16:50.482Z,44.24
2019-05-17T17:19:23.590Z,44.21
2019-05-17T17:21:55.937Z,44.15
2019-05-17T17:24:28.434Z,44.28
2019-05-17T17:27:01.189Z,44.29
2019-05-17T17:29:33.831Z,44.29
2019-05-17T17:32:19.416Z,44.33
2019-05-17T17:34:40.570Z,44.28
2019-05-17T17:37:13.064Z,44.27
2019-05-17T17:39:45.323Z,44.31
2019-05-17T17:42:17.737Z,44.40
2019-05-17T17:44:50.195Z,44.45
2019-05-17T17:47:22.644Z,44.50
2019-05-17T17:49:55.466Z,44.54
2019-05-17T17:52:28.009Z,44.65
2019-05-17T17:55:00.280Z,44.91
2019-05-17T17:57:32.599Z,44.93
2019-05-17T18:00:06.295Z,44.98
2019-05-17T18:02:38.493Z,45.01
2019-05-17T18:05:11.162Z,45.11
2019-05-17T18:07:43.661Z,45.16
2019-05-17T18:10:29.912Z,45.22
2019-05-17T18:13:02.451Z,45.21
2019-05-17T18:15:46.375Z,45.44
2019-05-17T18:18:18.705Z,45.41
2019-05-17T18:20:51.051Z,45.52
2019-05-17T18:23:23.762Z,45.45
2019-05-17T18:25:56.700Z,45.43
2019-05-17T18:28:29.094Z,45.37
2019-05-17T18:31:01.379Z,45.32
2019-05-17T18:33:33.634Z,45.35
2019-05-17T18:36:06.184Z,45.33
2019-05-17T18:38:40.054Z,45.51
2019-05-17T18:41:12.448Z,45.53
2019-05-17T18:43:44.747Z,45.53
2019-05-17T18:46:17.148Z,45.54
2019-05-17T18:48:49.343Z,45.59
2019-05-17T18:51:22.052Z,45.68
2019-05-17T18:53:54.688Z,45.66
2019-05-17T18:56:26.927Z,45.61
2019-05-17T18:58:59.144Z,45.74
2019-05-17T19:01:31.490Z,45.72
2019-05-17T19:04:03.872Z,45.71
2019-05-17T19:06:36.416Z,45.82
2019-05-17T19:09:09.941Z,45.95
2019-05-17T19:11:42.935Z,45.95
2019-05-17T19:14:16.282Z,46.03
2019-05-17T19:16:48.940Z,45.98
2019-05-17T19:19:21.892Z,45.90
2019-05-17T19:21:54.385Z,45.83
2019-05-17T19:24:27.039Z,45.79
2019-05-17T19:26:59.300Z,45.74
2019-05-17T19:29:31.676Z,45.73
2019-05-17T19:32:03.907Z,45.79
2019-05-17T19:34:36.436Z,45.92
2019-05-17T19:37:08.781Z,46.00
2019-05-17T19:39:41.053Z,46.04
2019-05-17T19:42:13.355Z,46.11
2019-05-17T19:44:58.042Z,46.20
2019-05-17T19:47:19.887Z,46.19
2019-05-17T19:49:52.411Z,46.20
2019-05-17T19:52:24.841Z,46.20
2019-05-17T19:54:57.257Z,46.20
2019-05-17T19:57:29.597Z,46.18
2019-05-17T20:00:02.100Z,46.18
2019-05-17T20:02:34.843Z,46.27
2019-05-17T20:05:07.163Z,46.27
2019-05-17T20:07:39.614Z,46.25
2019-05-17T20:10:15.488Z,46.28
2019-05-17T20:12:48.016Z,46.24
2019-05-17T20:15:33.610Z,46.30
2019-05-17T20:17:54.734Z,46.32
2019-05-17T20:20:27.078Z,46.32
2019-05-17T20:23:00.293Z,46.29
2019-05-17T20:25:33.348Z,46.35
2019-05-17T20:28:05.848Z,46.31
2019-05-17T20:30:38.449Z,46.31
2019-05-17T20:33:10.690Z,46.34
2019-05-17T20:35:43.344Z,46.37
2019-05-17T20:38:15.577Z,46.43
2019-05-17T20:40:48.028Z,46.47
2019-05-17T20:43:20.471Z,46.48
2019-05-17T20:45:53.377Z,46.57
2019-05-17T20:48:26.207Z,46.57
2019-05-17T20:50:59.262Z,46.59
2019-05-17T20:53:31.674Z,46.59
2019-05-17T20:56:03.995Z,46.59
2019-05-17T20:58:36.416Z,46.60
2019-05-17T21:01:09.377Z,46.60
2019-05-17T21:03:41.868Z,46.59
2019-05-17T21:06:14.184Z,46.60
2019-05-17T21:08:46.769Z,46.62
2019-05-17T21:11:18.951Z,46.65
2019-05-17T21:13:51.982Z,46.68
2019-05-17T21:16:24.801Z,46.76
2019-05-17T21:18:57.318Z,46.82
2019-05-17T21:21:29.509Z,46.90
2019-05-17T21:24:02.011Z,46.94
2019-05-17T21:26:34.259Z,46.94
2019-05-17T21:29:06.680Z,46.95
2019-05-17T21:31:38.856Z,46.97
2019-05-17T21:34:11.068Z,47.00
2019-05-17T21:36:43.325Z,47.03
2019-05-17T21:39:15.554Z,47.04
2019-05-17T21:41:47.967Z,47.06
2019-05-17T21:44:20.233Z,47.10
2019-05-17T21:47:03.700Z,47.11
2019-05-17T21:49:26.526Z,47.16
2019-05-17T21:51:58.901Z,47.13
2019-05-17T21:54:31.198Z,47.07
2019-05-17T21:57:03.609Z,47.06
2019-05-17T21:59:35.829Z,47.11
2019-05-17T22:02:08.050Z,47.14
2019-05-17T22:04:42.746Z,47.17
2019-05-17T22:07:15.051Z,47.19
2019-05-17T22:09:47.550Z,47.22
2019-05-17T22:12:19.954Z,47.20
2019-05-17T22:14:52.168Z,47.25
2019-05-17T22:17:24.525Z,47.26
2019-05-17T22:20:00.062Z,47.30
2019-05-17T22:22:32.400Z,47.33
2019-05-17T22:25:04.579Z,47.37
2019-05-17T22:27:36.793Z,47.38
2019-05-17T22:30:09.742Z,47.38
2019-05-17T22:32:41.952Z,47.40
2019-05-17T22:35:14.270Z,47.42
2019-05-17T22:37:46.482Z,47.41
2019-05-17T22:40:18.693Z,47.37
2019-05-17T22:42:51.498Z,47.35
2019-05-17T22:45:23.941Z,47.36
2019-05-17T22:47:56.655Z,47.35
2019-05-17T22:50:29.327Z,47.39
2019-05-17T22:53:01.859Z,47.40
2019-05-17T22:55:34.293Z,47.42
2019-05-17T22:58:06.449Z,47.45
2019-05-17T23:00:38.792Z,47.46
2019-05-17T23:03:11.028Z,47.50
2019-05-17T23:05:43.397Z,47.50
2019-05-17T23:08:15.645Z,47.48
2019-05-17T23:10:48.412Z,47.47
2019-05-17T23:13:20.689Z,47.49
2019-05-17T23:16:07.692Z,47.50
2019-05-17T23:18:39.966Z,47.48
2019-05-17T23:21:13.842Z,47.47
2019-05-17T23:23:46.803Z,47.48
2019-05-17T23:26:19.751Z,47.46
2019-05-17T23:28:52.103Z,47.46
2019-05-17T23:31:24.987Z,47.46
2019-05-17T23:33:57.213Z,47.46
2019-05-17T23:36:29.938Z,47.47
2019-05-17T23:39:02.117Z,47.46
2019-05-17T23:41:34.394Z,47.49
2019-05-17T23:44:06.604Z,47.53
2019-05-17T23:46:38.790Z,47.54
2019-05-17T23:49:11.298Z,47.58
2019-05-17T23:51:43.597Z,47.60
2019-05-17T23:54:15.804Z,47.63
2019-05-17T23:56:48.083Z,47.65
2019-05-17T23:59:20.411Z,47.67
